createdAt,value
2019-03-13T00:04:15.097Z,7.47
2019-03-13T00:09:19.162Z,7.54
2019-03-13T00:14:23.198Z,7.59
2019-03-13T00:19:27.192Z,7.63
2019-03-13T00:24:31.339Z,7.70
2019-03-13T00:29:35.510Z,7.60
2019-03-13T00:34:39.549Z,7.51
2019-03-13T00:39:43.603Z,7.70
2019-03-13T00:44:47.890Z,7.60
2019-03-13T00:49:51.903Z,7.57
2019-03-13T00:54:56.223Z,7.54
2019-03-13T01:00:00.425Z,7.56
2019-03-13T01:05:04.907Z,7.38
2019-03-13T01:10:08.960Z,7.35
2019-03-13T01:15:13.044Z,7.49
2019-03-13T01:20:17.500Z,7.37
2019-03-13T01:25:22.409Z,7.27
2019-03-13T01:30:26.506Z,7.38
2019-03-13T01:35:30.569Z,7.39
2019-03-13T01:40:34.605Z,7.24
2019-03-13T01:45:38.589Z,7.23
2019-03-13T01:50:42.619Z,7.13
2019-03-13T01:55:47.038Z,7.05
2019-03-13T02:00:51.084Z,7.24
2019-03-13T02:05:55.178Z,7.07
2019-03-13T02:10:59.479Z,7.03
2019-03-13T02:16:03.523Z,6.96
2019-03-13T02:21:07.711Z,6.84
2019-03-13T02:26:11.771Z,6.73
2019-03-13T02:31:15.779Z,6.67
2019-03-13T02:36:20.369Z,6.58
2019-03-13T02:41:24.443Z,6.64
2019-03-13T02:46:28.552Z,6.69
2019-03-13T02:51:32.576Z,6.51
2019-03-13T02:56:36.683Z,6.46
2019-03-13T03:01:40.980Z,6.42
2019-03-13T03:06:45.045Z,6.53
2019-03-13T03:11:49.943Z,6.51
2019-03-13T03:16:53.965Z,6.64
2019-03-13T03:21:58.688Z,6.85
2019-03-13T03:27:02.773Z,6.47
2019-03-13T03:32:06.854Z,6.26
2019-03-13T03:37:11.014Z,6.17
2019-03-13T03:42:15.247Z,6.09
2019-03-13T03:47:19.296Z,6.07
2019-03-13T03:52:23.388Z,6.04
2019-03-13T03:57:27.440Z,6.11
2019-03-13T04:02:32.098Z,6.00
2019-03-13T04:07:36.137Z,5.95
2019-03-13T04:12:40.198Z,5.74
2019-03-13T04:17:44.624Z,5.71
2019-03-13T04:22:49.240Z,5.79
2019-03-13T04:27:53.557Z,5.79
2019-03-13T04:32:57.572Z,5.68
2019-03-13T04:38:01.874Z,5.67
2019-03-13T04:43:05.919Z,5.65
2019-03-13T04:48:09.944Z,5.59
2019-03-13T04:53:14.322Z,5.51
2019-03-13T04:58:18.326Z,5.40
2019-03-13T05:03:23.027Z,5.10
2019-03-13T05:08:51.119Z,4.69
2019-03-13T05:13:55.111Z,4.62
2019-03-13T05:18:59.160Z,4.53
2019-03-13T05:24:03.178Z,4.45
2019-03-13T05:29:07.528Z,4.13
2019-03-13T05:34:11.567Z,4.17
2019-03-13T05:39:15.580Z,3.97
2019-03-13T05:44:19.981Z,3.77
2019-03-13T05:49:24.056Z,3.70
2019-03-13T05:54:28.282Z,3.67
2019-03-13T05:59:32.284Z,3.77
2019-03-13T06:04:36.745Z,3.79
2019-03-13T06:09:40.937Z,3.90
2019-03-13T06:14:47.044Z,4.03
2019-03-13T06:19:51.053Z,4.19
2019-03-13T06:24:55.582Z,4.50
2019-03-13T06:30:18.699Z,4.64
2019-03-13T06:35:23.928Z,4.82
2019-03-13T06:40:28.062Z,4.97
2019-03-13T06:45:32.092Z,4.84
2019-03-13T06:50:36.173Z,4.97
2019-03-13T06:55:40.250Z,5.27
2019-03-13T07:00:44.437Z,5.41
2019-03-13T07:05:48.444Z,5.05
2019-03-13T07:10:52.494Z,5.11
2019-03-13T07:15:56.780Z,5.53
2019-03-13T07:21:02.291Z,5.55
2019-03-13T07:26:08.009Z,5.48
2019-03-13T07:31:12.458Z,5.69
2019-03-13T07:36:16.623Z,6.14
2019-03-13T07:41:20.726Z,6.22
2019-03-13T07:46:24.779Z,6.78
2019-03-13T07:51:29.547Z,6.92
2019-03-13T07:56:33.607Z,6.93
2019-03-13T08:01:37.636Z,6.97
2019-03-13T08:06:41.705Z,7.00
2019-03-13T08:11:45.780Z,6.82
2019-03-13T08:16:49.796Z,7.23
2019-03-13T08:21:53.845Z,8.26
2019-03-13T08:26:57.853Z,8.47
2019-03-13T08:32:01.917Z,8.51
2019-03-13T08:37:06.699Z,8.72
2019-03-13T08:42:11.025Z,9.09
2019-03-13T08:47:15.376Z,9.58
2019-03-13T08:52:19.399Z,9.59
2019-03-13T08:57:23.743Z,9.52
2019-03-13T09:02:27.777Z,9.09
2019-03-13T09:07:31.846Z,8.74
2019-03-13T09:12:36.231Z,9.15
2019-03-13T09:17:40.545Z,9.15
2019-03-13T09:22:44.550Z,8.86
2019-03-13T09:27:48.614Z,8.57
2019-03-13T09:32:52.690Z,9.12
2019-03-13T09:37:56.819Z,8.93
2019-03-13T09:43:00.895Z,8.99
2019-03-13T09:48:05.137Z,9.26
2019-03-13T09:53:09.473Z,9.87
2019-03-13T09:58:13.767Z,10.31
2019-03-13T10:03:17.935Z,10.31
2019-03-13T10:08:22.342Z,10.56
2019-03-13T10:13:26.529Z,10.65
2019-03-13T10:18:30.962Z,10.81
2019-03-13T10:23:35.472Z,11.39
2019-03-13T10:28:41.356Z,10.46
2019-03-13T10:33:45.852Z,10.11
2019-03-13T10:38:50.355Z,10.39
2019-03-13T10:43:55.045Z,10.31
2019-03-13T10:49:00.150Z,10.54
2019-03-13T10:54:04.606Z,10.37
2019-03-13T10:59:08.999Z,10.59
2019-03-13T11:04:15.801Z,11.51
2019-03-13T11:09:20.322Z,11.04
2019-03-13T11:14:24.673Z,11.37
2019-03-13T11:19:31.264Z,11.06
2019-03-13T11:24:37.116Z,10.97
2019-03-13T11:29:43.365Z,11.33
2019-03-13T11:34:47.408Z,10.79
2019-03-13T11:39:53.085Z,11.03
2019-03-13T11:44:59.279Z,10.66
2019-03-13T11:50:03.915Z,10.34
2019-03-13T11:55:10.946Z,10.14
2019-03-13T12:00:17.278Z,10.04
2019-03-13T12:05:21.578Z,9.58
2019-03-13T12:10:25.683Z,9.58
2019-03-13T12:15:30.843Z,9.49
2019-03-13T12:20:34.921Z,9.26
2019-03-13T12:25:38.961Z,9.41
2019-03-13T12:30:42.981Z,9.72
2019-03-13T12:35:47.088Z,9.65
2019-03-13T12:40:51.152Z,9.51
2019-03-13T12:45:55.245Z,9.40
2019-03-13T12:50:59.273Z,9.46
2019-03-13T12:56:03.353Z,9.43
2019-03-13T13:01:07.383Z,9.28
2019-03-13T13:06:11.398Z,9.27
2019-03-13T13:11:15.386Z,9.41
2019-03-13T13:16:19.439Z,9.30
2019-03-13T13:21:23.722Z,9.34
2019-03-13T13:26:27.766Z,9.43
2019-03-13T13:31:31.842Z,9.45
2019-03-13T13:36:35.866Z,9.57
2019-03-13T13:41:41.082Z,9.64
2019-03-13T13:46:47.083Z,9.85
2019-03-13T13:51:53.334Z,9.92
2019-03-13T13:56:58.456Z,9.99
2019-03-13T14:02:04.391Z,10.01
2019-03-13T14:07:10.825Z,10.13
2019-03-13T14:12:16.125Z,10.10
2019-03-13T14:17:22.043Z,10.10
2019-03-13T14:22:28.187Z,10.17
2019-03-13T14:27:33.734Z,10.18
2019-03-13T14:32:39.911Z,10.10
2019-03-13T14:37:45.141Z,9.89
2019-03-13T14:42:50.314Z,9.89
2019-03-13T14:47:58.607Z,9.70
2019-03-13T14:53:05.657Z,9.74
2019-03-13T14:58:11.950Z,9.48
2019-03-13T15:03:16.084Z,9.28
2019-03-13T15:08:20.191Z,9.20
2019-03-13T15:13:24.233Z,9.17
2019-03-13T15:18:28.390Z,9.14
2019-03-13T15:23:33.245Z,9.29
2019-03-13T15:28:39.986Z,9.19
2019-03-13T15:33:45.677Z,9.14
2019-03-13T15:38:51.283Z,9.14
2019-03-13T15:43:58.012Z,9.13
2019-03-13T15:49:04.432Z,9.17
2019-03-13T15:54:12.966Z,9.14
2019-03-13T15:59:21.695Z,9.11
2019-03-13T16:04:28.218Z,9.02
2019-03-13T16:09:36.629Z,8.95
2019-03-13T16:14:44.439Z,8.98
2019-03-13T16:19:50.259Z,8.90
2019-03-13T16:24:58.148Z,8.85
2019-03-13T16:30:06.115Z,8.85
2019-03-13T16:35:14.218Z,8.82
2019-03-13T16:40:20.715Z,8.75
2019-03-13T16:45:27.149Z,8.68
2019-03-13T16:50:34.296Z,8.55
2019-03-13T16:55:38.904Z,8.48
2019-03-13T17:00:43.473Z,8.47
2019-03-13T17:05:47.779Z,8.36
2019-03-13T17:10:52.383Z,8.11
2019-03-13T17:15:56.504Z,8.21
2019-03-13T17:21:01.275Z,8.19
2019-03-13T17:26:06.144Z,8.27
2019-03-13T17:31:10.374Z,8.24
2019-03-13T17:36:15.774Z,8.27
2019-03-13T17:41:26.282Z,8.28
2019-03-13T17:46:32.428Z,8.16
2019-03-13T17:51:38.674Z,8.08
2019-03-13T17:56:45.652Z,8.04
2019-03-13T18:01:49.977Z,8.01
2019-03-13T18:06:54.027Z,8.10
2019-03-13T18:11:58.053Z,8.00
2019-03-13T18:17:02.037Z,8.03
2019-03-13T18:22:06.055Z,8.07
2019-03-13T18:27:10.144Z,7.96
2019-03-13T18:32:17.354Z,7.91
2019-03-13T18:37:23.352Z,7.84
2019-03-13T18:42:29.180Z,7.71
2019-03-13T18:47:37.150Z,7.18
2019-03-13T18:52:43.578Z,6.84
2019-03-13T18:57:51.807Z,6.55
2019-03-13T19:02:58.308Z,6.47
2019-03-13T19:08:02.920Z,6.54
2019-03-13T19:13:07.092Z,6.47
2019-03-13T19:18:11.247Z,6.41
2019-03-13T19:23:15.359Z,6.55
2019-03-13T19:28:20.923Z,6.44
2019-03-13T19:33:24.994Z,6.50
2019-03-13T19:38:29.108Z,6.67
2019-03-13T19:43:33.575Z,6.66
2019-03-13T19:48:38.354Z,6.57
2019-03-13T19:53:44.715Z,6.76
2019-03-13T19:58:51.165Z,6.77
2019-03-13T20:03:59.064Z,6.73
2019-03-13T20:09:07.596Z,6.80
2019-03-13T20:14:18.581Z,6.83
2019-03-13T20:19:23.393Z,6.88
2019-03-13T20:24:27.808Z,7.16
2019-03-13T20:29:32.409Z,7.24
2019-03-13T20:34:37.515Z,7.13
2019-03-13T20:39:42.236Z,7.01
2019-03-13T20:44:47.281Z,6.80
2019-03-13T20:49:54.109Z,6.72
2019-03-13T20:54:58.446Z,6.54
2019-03-13T21:00:03.627Z,6.53
2019-03-13T21:05:09.027Z,6.60
2019-03-13T21:10:14.280Z,6.68
2019-03-13T21:15:18.707Z,6.78
2019-03-13T21:20:22.738Z,6.88
2019-03-13T21:25:27.716Z,6.78
2019-03-13T21:30:32.285Z,6.50
2019-03-13T21:35:39.812Z,6.42
2019-03-13T21:40:45.781Z,6.36
2019-03-13T21:45:51.969Z,6.29
2019-03-13T21:50:56.889Z,6.14
2019-03-13T21:56:04.236Z,6.09
2019-03-13T22:01:19.312Z,6.09
2019-03-13T22:06:27.646Z,6.02
2019-03-13T22:11:20.947Z,6.00
2019-03-13T22:16:25.275Z,6.00
2019-03-13T22:21:29.493Z,5.98
2019-03-13T22:26:33.552Z,5.92
2019-03-13T22:31:37.865Z,5.82
2019-03-13T22:36:41.916Z,5.79
2019-03-13T22:41:45.915Z,5.77
2019-03-13T22:46:50.477Z,5.85
2019-03-13T22:51:54.721Z,5.83
2019-03-13T22:56:58.996Z,5.84
2019-03-13T23:02:04.019Z,5.84
2019-03-13T23:07:08.713Z,6.01
2019-03-13T23:12:12.729Z,5.99
2019-03-13T23:17:17.111Z,5.96
2019-03-13T23:22:21.202Z,6.03
2019-03-13T23:27:25.324Z,6.03
2019-03-13T23:32:29.375Z,6.08
2019-03-13T23:37:33.414Z,6.10
2019-03-13T23:42:37.458Z,6.10
2019-03-13T23:47:41.779Z,6.18
2019-03-13T23:52:45.823Z,6.21
2019-03-13T23:57:49.932Z,6.17
